Terminal Aerodrome Forecast
Issued by NWS

Home | Current Version | Previous Version | Text Only | Print | Product List | Glossary On
Versions: 1 2 3 4 5 6 7 8 9 10 11 12 13 14 15 16 17 18
000
FTUS45 KVEF 260000 AAA
TAFHND
TAF AMD
KHND 260039Z 2601/2624 21014G24KT P6SM VCTS SCT080CB SCT150 BKN200
     FM260130 19009KT P6SM SCT150 BKN200
     FM261800 18012KT P6SM SCT100 SCT150=

USA.gov is the U.S. government's official web portal to all federal, state and local government web resources and services.